Jefferson, Illinois
Current Conditions -  °F | °C
As of 2:51 AM on Friday 21 Nov 2014 (Local Time) from KORD Reporting Station
Clear Clear  
Wind Chill: 12°   Ceiling: Unl
Heat Index: 12°   Visibility: 10mi
Dew Point:   Wind: 0mph
Humidity: 67%   Direction: NA
Pressure: 30.37"   Gusts: NA
Location:  41.9738°N, 87.7498°W
Report Text: KORD 210851Z 00000KT 10SM CLR M11/M16 A3037 RMK AO2 SLP296 T11111161 51019
Loading
Personal Weather Stations






























Interactive Weather Map New forecast layout! Learn more

10-Day Weather Forecast

Advertisements
Track Severe Weather on mobile